Taos, New Mexico
Current Conditions -  °F | °C
As of 11:35 PM on Sunday 23 Nov 2014 (Local Time) from KSKX Reporting Station
Clear Clear  
Wind Chill: -7°   Ceiling: Unl
Heat Index:   Visibility: 10mi
Dew Point:   Wind: 9mph
Humidity: 72%   Direction: 320°NW
Pressure: 30.02"   Gusts: NA
Location:  36.41°N, 105.57°W
Report Text: KSKX 240635Z AUTO 32008KT 10SM CLR M14/M18 A3002 RMK AO1
Loading
Personal Weather Stations






























Interactive Weather Map New forecast layout! Learn more

10-Day Weather Forecast

Advertisements
Track Severe Weather on mobile